createdAt,value
2018-08-18T00:01:57.708Z,100837.74
2018-08-18T00:04:55.587Z,100838.00
2018-08-18T00:07:53.868Z,100845.05
2018-08-18T00:10:51.802Z,100846.30
2018-08-18T00:13:59.948Z,100844.72
2018-08-18T00:16:57.995Z,100850.34
2018-08-18T00:20:03.076Z,100858.67
2018-08-18T00:23:01.038Z,100856.03
2018-08-18T00:25:59.108Z,100855.89
2018-08-18T00:28:57.048Z,100848.42
2018-08-18T00:31:55.833Z,100850.14
2018-08-18T00:34:58.983Z,100852.55
2018-08-18T00:37:56.508Z,100846.18
2018-08-18T00:40:54.344Z,100843.45
2018-08-18T00:43:52.361Z,100847.08
2018-08-18T00:46:51.457Z,100842.59
2018-08-18T00:49:49.535Z,100847.98
2018-08-18T00:52:47.500Z,100844.09
2018-08-18T00:55:45.638Z,100843.13
2018-08-18T00:58:42.691Z,100847.95
2018-08-18T01:01:39.810Z,100846.30
2018-08-18T01:04:37.772Z,100847.34
2018-08-18T01:07:34.865Z,100844.97
2018-08-18T01:10:32.608Z,100844.72
2018-08-18T01:13:30.668Z,100841.36
2018-08-18T01:16:27.712Z,100841.59
2018-08-18T01:19:27.551Z,100846.00
2018-08-18T01:22:25.621Z,100849.70
2018-08-18T01:25:23.584Z,100852.57
2018-08-18T01:28:21.683Z,100855.73
2018-08-18T01:31:32.047Z,100861.19
2018-08-18T01:34:29.893Z,100863.85
2018-08-18T01:37:28.564Z,100875.09
2018-08-18T01:40:26.521Z,100871.97
2018-08-18T01:43:23.712Z,100876.04
2018-08-18T01:46:23.752Z,100871.52
2018-08-18T01:49:57.167Z,100870.05
2018-08-18T01:52:54.103Z,100872.21
2018-08-18T01:55:52.255Z,100875.08
2018-08-18T01:58:49.255Z,100870.66
2018-08-18T02:01:47.424Z,100876.41
2018-08-18T02:04:44.440Z,100876.17
2018-08-18T02:07:42.385Z,100874.98
2018-08-18T02:10:39.449Z,100873.44
2018-08-18T02:13:36.598Z,100871.03
2018-08-18T02:16:34.891Z,100873.17
2018-08-18T02:19:32.246Z,100876.28
2018-08-18T02:22:31.072Z,100868.89
2018-08-18T02:25:28.977Z,100876.17
2018-08-18T02:28:33.071Z,100875.58
2018-08-18T02:31:29.911Z,100872.45
2018-08-18T02:34:27.865Z,100873.55
2018-08-18T02:37:25.716Z,100867.69
2018-08-18T02:40:25.773Z,100868.14
2018-08-18T02:43:28.915Z,100870.32
2018-08-18T02:46:38.724Z,100866.83
2018-08-18T02:49:40.892Z,100872.09
2018-08-18T02:52:38.355Z,100872.91
2018-08-18T02:55:35.819Z,100855.70
2018-08-18T02:58:32.840Z,100865.73
2018-08-18T03:01:34.857Z,100869.34
2018-08-18T03:04:32.794Z,100872.58
2018-08-18T03:07:30.168Z,100870.19
2018-08-18T03:10:33.211Z,100876.77
2018-08-18T03:13:33.406Z,100885.63
2018-08-18T03:16:31.243Z,100890.27
2018-08-18T03:19:28.432Z,100879.64
2018-08-18T03:22:25.548Z,100880.23
2018-08-18T03:25:22.595Z,100878.19
2018-08-18T03:28:20.587Z,100876.88
2018-08-18T03:31:17.955Z,100885.73
2018-08-18T03:34:15.614Z,100883.81
2018-08-18T03:37:12.890Z,100889.45
2018-08-18T03:40:09.959Z,100887.63
2018-08-18T03:43:06.983Z,100886.78
2018-08-18T03:46:04.903Z,100889.50
2018-08-18T03:49:02.630Z,100891.20
2018-08-18T03:52:00.771Z,100896.96
2018-08-18T03:54:58.804Z,100896.91
2018-08-18T03:58:01.244Z,100900.59
2018-08-18T04:00:58.737Z,100897.95
2018-08-18T04:03:56.503Z,100905.41
2018-08-18T04:06:54.766Z,100904.13
2018-08-18T04:09:51.983Z,100911.31
2018-08-18T04:12:49.606Z,100913.20
2018-08-18T04:15:46.961Z,100912.52
2018-08-18T04:18:43.815Z,100925.80
2018-08-18T04:21:41.645Z,100924.42
2018-08-18T04:24:47.416Z,100918.09
2018-08-18T04:28:03.346Z,100918.92
2018-08-18T04:31:00.845Z,100928.77
2018-08-18T04:33:57.887Z,100924.92
2018-08-18T04:36:55.115Z,100930.78
2018-08-18T04:39:52.155Z,100926.75
2018-08-18T04:42:49.863Z,100916.43
2018-08-18T04:45:47.393Z,100922.86
2018-08-18T04:48:50.989Z,100906.23
2018-08-18T04:51:48.129Z,100901.28
2018-08-18T04:54:46.067Z,100902.13
2018-08-18T04:57:43.855Z,100897.95
2018-08-18T05:00:41.659Z,100898.04
2018-08-18T05:03:38.961Z,100906.90
2018-08-18T05:06:37.807Z,100907.87
2018-08-18T05:09:34.771Z,100903.53
2018-08-18T05:12:32.637Z,100909.68
2018-08-18T05:15:30.474Z,100911.23
2018-08-18T05:18:28.463Z,100914.03
2018-08-18T05:21:27.359Z,100922.37
2018-08-18T05:24:36.547Z,100908.74
2018-08-18T05:27:33.543Z,100917.09
2018-08-18T05:30:30.622Z,100917.36
2018-08-18T05:33:27.661Z,100913.94
2018-08-18T05:36:25.734Z,100915.20
2018-08-18T05:39:23.667Z,100921.21
2018-08-18T05:42:20.803Z,100906.84
2018-08-18T05:45:28.280Z,100915.46
2018-08-18T05:48:26.436Z,100901.25
2018-08-18T05:51:23.903Z,100905.34
2018-08-18T05:54:27.704Z,100909.91
2018-08-18T05:57:25.989Z,100917.94
2018-08-18T06:00:25.123Z,100922.36
2018-08-18T06:03:22.435Z,100917.02
2018-08-18T06:06:21.368Z,100921.34
2018-08-18T06:09:21.362Z,100926.54
2018-08-18T06:12:25.320Z,100927.78
2018-08-18T06:15:24.200Z,100927.86
2018-08-18T06:18:22.386Z,100933.54
2018-08-18T06:21:19.512Z,100929.95
2018-08-18T06:24:16.775Z,100927.05
2018-08-18T06:27:14.256Z,100921.94
2018-08-18T06:30:12.561Z,100928.72
2018-08-18T06:33:09.411Z,100933.98
2018-08-18T06:36:06.637Z,100935.95
2018-08-18T06:39:04.183Z,100924.95
2018-08-18T06:42:02.008Z,100916.39
2018-08-18T06:44:59.943Z,100926.19
2018-08-18T06:47:57.815Z,100930.95
2018-08-18T06:50:55.576Z,100931.47
2018-08-18T06:53:55.696Z,100940.91
2018-08-18T06:56:53.787Z,100942.80
2018-08-18T06:59:51.855Z,100945.07
2018-08-18T07:02:49.003Z,100943.52
2018-08-18T07:05:46.715Z,100942.00
2018-08-18T07:08:50.493Z,100943.03
2018-08-18T07:11:48.265Z,100925.22
2018-08-18T07:14:46.559Z,100934.66
2018-08-18T07:17:44.516Z,100940.80
2018-08-18T07:20:42.213Z,100939.61
2018-08-18T07:23:40.183Z,100936.95
2018-08-18T07:26:37.515Z,100931.81
2018-08-18T07:29:35.336Z,100940.25
2018-08-18T07:32:32.950Z,100951.89
2018-08-18T07:35:31.014Z,100945.64
2018-08-18T07:38:28.904Z,100939.58
2018-08-18T07:41:26.875Z,100927.43
2018-08-18T07:44:25.016Z,100927.83
2018-08-18T07:47:24.855Z,100924.23
2018-08-18T07:50:22.517Z,100933.98
2018-08-18T07:53:21.573Z,100932.81
2018-08-18T07:56:19.324Z,100939.70
2018-08-18T07:59:17.251Z,100940.23
2018-08-18T08:02:15.074Z,100929.75
2018-08-18T08:05:12.422Z,100942.55
2018-08-18T08:08:09.944Z,100946.48
2018-08-18T08:11:14.292Z,100949.61
2018-08-18T08:14:11.418Z,100966.14
2018-08-18T08:17:08.714Z,100959.48
2018-08-18T08:20:06.037Z,100957.20
2018-08-18T08:23:04.680Z,100954.91
2018-08-18T08:26:02.013Z,100947.98
2018-08-18T08:28:59.890Z,100952.28
2018-08-18T08:31:58.081Z,100946.38
2018-08-18T08:34:56.137Z,100955.50
2018-08-18T08:37:55.137Z,100950.06
2018-08-18T08:40:53.213Z,100949.03
2018-08-18T08:43:57.315Z,100959.04
2018-08-18T08:46:59.194Z,100953.86
2018-08-18T08:49:56.260Z,100944.20
2018-08-18T08:52:57.499Z,100946.02
2018-08-18T08:55:55.534Z,100942.34
2018-08-18T08:58:57.842Z,100952.09
2018-08-18T09:01:55.942Z,100936.56
2018-08-18T09:04:54.025Z,100943.47
2018-08-18T09:07:51.880Z,100930.73
2018-08-18T09:10:49.951Z,100940.71
2018-08-18T09:13:48.043Z,100938.97
2018-08-18T09:16:45.604Z,100946.23
2018-08-18T09:19:42.756Z,100941.20
2018-08-18T09:22:39.923Z,100929.30
2018-08-18T09:25:38.284Z,100928.92
2018-08-18T09:28:36.167Z,100938.69
2018-08-18T09:31:34.829Z,100951.14
2018-08-18T09:34:32.505Z,100951.98
2018-08-18T09:37:29.544Z,100947.92
2018-08-18T09:40:27.656Z,100947.69
2018-08-18T09:43:31.675Z,100944.89
2018-08-18T09:46:28.726Z,100954.91
2018-08-18T09:49:26.524Z,100959.55
2018-08-18T09:52:25.595Z,100956.39
2018-08-18T09:55:23.489Z,100974.47
2018-08-18T09:58:21.536Z,100966.21
2018-08-18T10:01:19.438Z,100970.05
2018-08-18T10:04:17.436Z,100973.08
2018-08-18T10:07:15.422Z,100967.06
2018-08-18T10:10:13.429Z,100961.92
2018-08-18T10:13:11.387Z,100961.77
2018-08-18T10:16:09.469Z,100952.03
2018-08-18T10:19:07.468Z,100951.23
2018-08-18T10:22:05.180Z,100955.84
2018-08-18T10:25:03.072Z,100934.58
2018-08-18T10:28:02.126Z,100947.62
2018-08-18T10:31:00.060Z,100955.41
2018-08-18T10:33:58.076Z,100956.77
2018-08-18T10:37:13.242Z,100943.38
2018-08-18T10:40:17.188Z,100942.86
2018-08-18T10:43:14.977Z,100948.95
2018-08-18T10:46:12.583Z,100951.57
2018-08-18T10:49:10.417Z,100942.70
2018-08-18T10:52:20.479Z,100940.17
2018-08-18T10:55:18.484Z,100927.23
2018-08-18T10:58:21.417Z,100910.88
2018-08-18T11:01:19.234Z,100910.34
2018-08-18T11:04:16.359Z,100897.39
2018-08-18T11:07:13.334Z,100903.44
2018-08-18T11:10:11.181Z,100909.30
2018-08-18T11:13:08.442Z,100889.42
2018-08-18T11:16:06.335Z,100900.76
2018-08-18T11:19:04.260Z,100889.86
2018-08-18T11:22:04.303Z,100893.22
2018-08-18T11:25:02.128Z,100891.76
2018-08-18T11:28:01.296Z,100891.75
2018-08-18T11:30:58.295Z,100894.14
2018-08-18T11:34:00.230Z,100896.39
2018-08-18T11:37:06.567Z,100888.09
2018-08-18T11:40:08.665Z,100901.52
2018-08-18T11:43:05.712Z,100909.21
2018-08-18T11:46:03.050Z,100934.98
2018-08-18T11:49:00.428Z,100924.08
2018-08-18T11:51:58.351Z,100924.77
2018-08-18T11:54:56.251Z,100915.20
2018-08-18T11:57:53.339Z,100909.30
2018-08-18T12:00:57.893Z,100904.84
2018-08-18T12:03:56.017Z,100903.62
2018-08-18T12:06:59.971Z,100903.66
2018-08-18T12:10:00.103Z,100907.33
2018-08-18T12:12:57.986Z,100907.55
2018-08-18T12:16:06.295Z,100899.95
2018-08-18T12:19:03.998Z,100900.00
2018-08-18T12:22:01.916Z,100896.27
2018-08-18T12:25:05.237Z,100897.78
2018-08-18T12:28:03.150Z,100884.59
2018-08-18T12:31:01.277Z,100886.67
2018-08-18T12:33:59.060Z,100871.09
2018-08-18T12:36:57.243Z,100878.27
2018-08-18T12:39:54.970Z,100875.09
2018-08-18T12:42:52.768Z,100872.56
2018-08-18T12:45:54.939Z,100867.44
2018-08-18T12:48:53.003Z,100873.65
2018-08-18T12:51:51.245Z,100866.64
2018-08-18T12:54:49.139Z,100859.73
2018-08-18T12:57:53.369Z,100852.61
2018-08-18T13:00:50.728Z,100857.91
2018-08-18T13:03:48.516Z,100840.64
2018-08-18T13:06:50.090Z,100829.87
2018-08-18T13:09:47.732Z,100837.45
2018-08-18T13:12:45.598Z,100829.80
2018-08-18T13:15:43.376Z,100830.72
2018-08-18T13:18:40.502Z,100827.36
2018-08-18T13:21:38.368Z,100826.92
2018-08-18T13:24:36.258Z,100824.27
2018-08-18T13:27:34.328Z,100831.45
2018-08-18T13:30:33.311Z,100823.08
2018-08-18T13:33:31.442Z,100825.06
2018-08-18T13:36:28.568Z,100816.55
2018-08-18T13:39:27.775Z,100814.67
2018-08-18T13:42:37.492Z,100820.50
2018-08-18T13:45:41.836Z,100813.37
2018-08-18T13:48:39.514Z,100818.16
2018-08-18T13:51:37.502Z,100816.06
2018-08-18T13:54:34.840Z,100816.73
2018-08-18T13:57:43.093Z,100805.52
2018-08-18T14:00:40.938Z,100799.97
2018-08-18T14:03:54.373Z,100808.94
2018-08-18T14:06:57.719Z,100794.64
2018-08-18T14:10:02.136Z,100790.68
2018-08-18T14:13:00.485Z,100787.73
2018-08-18T14:16:04.206Z,100777.41
2018-08-18T14:19:02.248Z,100775.50
2018-08-18T14:22:15.077Z,100782.37
2018-08-18T14:25:12.431Z,100787.69
2018-08-18T14:28:11.623Z,100791.21
2018-08-18T14:31:09.512Z,100768.60
2018-08-18T14:34:07.615Z,100786.92
2018-08-18T14:37:10.704Z,100796.98
2018-08-18T14:40:08.036Z,100787.63
2018-08-18T14:43:05.188Z,100783.16
2018-08-18T14:46:03.144Z,100787.62
2018-08-18T14:49:01.021Z,100780.42
2018-08-18T14:51:59.085Z,100787.14
2018-08-18T14:54:56.371Z,100788.09
2018-08-18T14:58:01.516Z,100785.48
2018-08-18T15:01:03.359Z,100788.45
2018-08-18T15:04:01.170Z,100792.53
2018-08-18T15:06:59.219Z,100796.54
2018-08-18T15:10:00.422Z,100792.68
2018-08-18T15:12:58.470Z,100789.25
2018-08-18T15:15:56.508Z,100785.81
2018-08-18T15:18:54.182Z,100789.23
2018-08-18T15:21:52.191Z,100789.25
2018-08-18T15:24:49.191Z,100789.19
2018-08-18T15:27:47.346Z,100791.40
2018-08-18T15:30:45.787Z,100784.52
2018-08-18T15:33:43.128Z,100782.01
2018-08-18T15:36:47.141Z,100793.84
2018-08-18T15:39:47.107Z,100783.99
2018-08-18T15:42:44.421Z,100788.09
2018-08-18T15:45:42.529Z,100790.05
2018-08-18T15:48:40.708Z,100777.02
2018-08-18T15:51:37.691Z,100780.25
2018-08-18T15:54:37.881Z,100777.42
2018-08-18T15:57:36.047Z,100778.31
2018-08-18T16:06:04.446Z,100768.61
2018-08-18T16:09:02.501Z,100774.08
2018-08-18T16:12:00.321Z,100761.95
2018-08-18T16:14:58.076Z,100764.76
2018-08-18T16:17:56.020Z,100773.76
2018-08-18T16:20:55.764Z,100782.75
2018-08-18T16:23:53.646Z,100768.36
2018-08-18T16:26:50.600Z,100771.78
2018-08-18T16:29:48.564Z,100769.80
2018-08-18T16:32:46.745Z,100774.38
2018-08-18T16:35:44.708Z,100773.55
2018-08-18T16:38:42.835Z,100767.22
2018-08-18T16:41:40.552Z,100771.78
2018-08-18T16:44:38.551Z,100772.41
2018-08-18T16:47:36.648Z,100775.63
2018-08-18T16:50:34.528Z,100767.02
2018-08-18T16:53:32.381Z,100768.17
2018-08-18T16:56:36.691Z,100766.83
2018-08-18T16:59:34.868Z,100766.59
2018-08-18T17:02:43.806Z,100775.73
2018-08-18T17:05:41.788Z,100760.43
2018-08-18T17:08:39.583Z,100778.55
2018-08-18T17:11:37.460Z,100784.16
2018-08-18T17:14:35.501Z,100784.38
2018-08-18T17:17:33.357Z,100788.63
2018-08-18T17:20:32.176Z,100794.86
2018-08-18T17:23:29.963Z,100791.13
2018-08-18T17:26:27.892Z,100797.70
2018-08-18T17:29:25.762Z,100804.34
2018-08-18T17:32:23.518Z,100807.59
2018-08-18T17:35:21.517Z,100810.98
2018-08-18T17:38:19.182Z,100815.72
2018-08-18T17:41:17.042Z,100819.83
2018-08-18T17:44:14.927Z,100818.40
2018-08-18T17:47:12.825Z,100822.18
2018-08-18T17:50:10.538Z,100831.93
2018-08-18T17:53:08.436Z,100825.18
2018-08-18T17:56:12.359Z,100831.53
2018-08-18T17:59:10.230Z,100838.58
2018-08-18T18:02:16.212Z,100835.25
2018-08-18T18:05:15.075Z,100834.19
2018-08-18T18:08:15.082Z,100837.20
2018-08-18T18:11:12.743Z,100836.25
2018-08-18T18:14:10.741Z,100842.16
2018-08-18T18:17:08.591Z,100850.65
2018-08-18T18:20:06.474Z,100847.46
2018-08-18T18:23:04.289Z,100857.23
2018-08-18T18:26:02.334Z,100858.45
2018-08-18T18:29:00.391Z,100860.17
2018-08-18T18:31:58.432Z,100854.89
2018-08-18T18:34:56.267Z,100861.93
2018-08-18T18:37:54.149Z,100853.03
2018-08-18T18:40:56.176Z,100852.00
2018-08-18T18:43:57.568Z,100856.51
2018-08-18T18:46:55.096Z,100865.81
2018-08-18T18:49:53.194Z,100867.54
2018-08-18T18:52:50.538Z,100861.68
2018-08-18T18:55:53.421Z,100867.83
2018-08-18T18:58:51.454Z,100869.09
2018-08-18T19:01:48.695Z,100869.15
2018-08-18T19:04:47.374Z,100873.47
2018-08-18T19:07:45.343Z,100877.50
2018-08-18T19:10:44.216Z,100880.11
2018-08-18T19:13:41.824Z,100880.66
2018-08-18T19:16:39.747Z,100886.36
2018-08-18T19:19:37.916Z,100890.71
2018-08-18T19:22:35.908Z,100897.00
2018-08-18T19:25:33.980Z,100899.66
2018-08-18T19:28:35.368Z,100908.00
2018-08-18T19:31:41.665Z,100902.56
2018-08-18T19:34:39.594Z,100904.37
2018-08-18T19:37:37.657Z,100904.17
2018-08-18T19:40:35.977Z,100900.56
2018-08-18T19:43:35.076Z,100910.58
2018-08-18T19:46:33.221Z,100908.02
2018-08-18T19:49:37.363Z,100903.59
2018-08-18T19:52:36.275Z,100915.14
2018-08-18T19:55:34.301Z,100923.04
2018-08-18T19:58:33.142Z,100924.73
2018-08-18T20:01:31.186Z,100920.14
2018-08-18T20:04:34.157Z,100919.63
2018-08-18T20:07:32.104Z,100925.82
2018-08-18T20:10:29.977Z,100920.98
2018-08-18T20:13:28.898Z,100919.34
2018-08-18T20:16:27.127Z,100916.22
2018-08-18T20:19:25.887Z,100926.08
2018-08-18T20:22:28.108Z,100919.92
2018-08-18T20:25:25.739Z,100918.25
2018-08-18T20:28:23.480Z,100918.76
2018-08-18T20:31:21.467Z,100918.92
2018-08-18T20:34:19.176Z,100921.09
2018-08-18T20:37:17.007Z,100923.08
2018-08-18T20:40:15.936Z,100925.20
2018-08-18T20:43:15.856Z,100919.19
2018-08-18T20:46:13.876Z,100920.87
2018-08-18T20:49:11.757Z,100920.52
2018-08-18T20:52:09.539Z,100926.13
2018-08-18T20:55:07.428Z,100930.06
2018-08-18T20:58:05.488Z,100925.13
2018-08-18T21:01:03.380Z,100929.12
2018-08-18T21:04:07.296Z,100927.77
2018-08-18T21:07:05.262Z,100926.80
2018-08-18T21:10:03.249Z,100925.63
2018-08-18T21:13:01.302Z,100933.06
2018-08-18T21:15:59.204Z,100931.73
2018-08-18T21:18:57.116Z,100937.38
2018-08-18T21:21:54.999Z,100942.20
2018-08-18T21:24:52.916Z,100946.59
2018-08-18T21:27:50.755Z,100949.39
2018-08-18T21:30:48.776Z,100952.05
2018-08-18T21:33:48.678Z,100954.49
2018-08-18T21:36:46.728Z,100955.64
2018-08-18T21:39:44.658Z,100955.36
2018-08-18T21:42:42.627Z,100957.14
2018-08-18T21:45:46.654Z,100956.08
2018-08-18T21:48:55.051Z,100960.26
2018-08-18T21:51:52.905Z,100957.78
2018-08-18T21:54:50.874Z,100955.63
2018-08-18T21:57:59.431Z,100964.25
2018-08-18T22:00:56.420Z,100960.76
2018-08-18T22:03:55.492Z,100962.34
2018-08-18T22:06:53.631Z,100967.22
2018-08-18T22:09:51.547Z,100968.12
2018-08-18T22:12:49.356Z,100969.13
2018-08-18T22:15:47.205Z,100976.53
2018-08-18T22:18:45.018Z,100975.02
2018-08-18T22:21:43.127Z,100976.72
2018-08-18T22:24:41.165Z,100981.77
2018-08-18T22:27:42.001Z,100980.75
2018-08-18T22:30:39.671Z,100983.38
2018-08-18T22:33:41.743Z,100990.05
2018-08-18T22:36:40.801Z,100993.84
2018-08-18T22:39:40.984Z,100994.61
2018-08-18T22:42:38.633Z,100992.13
2018-08-18T22:45:42.690Z,100990.24
2018-08-18T22:48:40.673Z,100992.56
2018-08-18T22:51:38.404Z,100990.02
2018-08-18T22:54:35.608Z,100989.19
2018-08-18T22:57:34.758Z,100996.05
2018-08-18T23:00:32.112Z,100996.94
2018-08-18T23:03:29.458Z,100999.02
2018-08-18T23:06:27.344Z,100995.77
2018-08-18T23:09:25.527Z,100991.87
2018-08-18T23:12:24.620Z,100991.88
2018-08-18T23:15:22.464Z,100991.61
2018-08-18T23:18:20.083Z,100992.34
2018-08-18T23:21:22.057Z,100989.03
2018-08-18T23:24:30.271Z,100993.28
2018-08-18T23:27:27.782Z,100990.45
2018-08-18T23:30:34.521Z,100996.33
2018-08-18T23:33:32.549Z,100993.94
2018-08-18T23:36:30.513Z,100993.46
2018-08-18T23:39:29.244Z,100987.95
2018-08-18T23:42:34.394Z,100980.69
2018-08-18T23:45:36.537Z,100984.84
2018-08-18T23:48:33.879Z,100987.67
2018-08-18T23:51:35.883Z,100981.88
2018-08-18T23:54:33.711Z,100986.29
2018-08-18T23:57:31.704Z,100979.44
